sensor_id;sensor_type;location;lat;lon;timestamp;temperature;humidity
21037;DHT22;10677;50.942;4.028;2024-01-15T00:00:41;4.30;99.90
21037;DHT22;10677;50.942;4.028;2024-01-15T00:03:08;4.40;99.90
21037;DHT22;10677;50.942;4.028;2024-01-15T00:05:35;4.40;99.90
21037;DHT22;10677;50.942;4.028;2024-01-15T00:08:00;4.30;99.90
21037;DHT22;10677;50.942;4.028;2024-01-15T00:10:26;4.20;99.90
21037;DHT22;10677;50.942;4.028;2024-01-15T00:12:52;4.20;99.90
21037;DHT22;10677;50.942;4.028;2024-01-15T00:15:17;4.20;99.90
21037;DHT22;10677;50.942;4.028;2024-01-15T00:17:43;4.30;99.90
21037;DHT22;10677;50.942;4.028;2024-01-15T00:20:09;4.30;99.90
21037;DHT22;10677;50.942;4.028;2024-01-15T00:22:36;4.30;99.90
21037;DHT22;10677;50.942;4.028;2024-01-15T00:25:03;4.40;99.90
21037;DHT22;10677;50.942;4.028;2024-01-15T00:27:28;4.20;99.90
21037;DHT22;10677;50.942;4.028;2024-01-15T00:29:54;4.10;99.90
21037;DHT22;10677;50.942;4.028;2024-01-15T00:32:20;4.10;99.90
21037;DHT22;10677;50.942;4.028;2024-01-15T00:34:46;4.00;99.90
21037;DHT22;10677;50.942;4.028;2024-01-15T00:37:12;4.00;99.90
21037;DHT22;10677;50.942;4.028;2024-01-15T00:39:38;3.90;99.90
21037;DHT22;10677;50.942;4.028;2024-01-15T00:42:04;4.00;99.90
21037;DHT22;10677;50.942;4.028;2024-01-15T00:44:30;4.00;99.90
21037;DHT22;10677;50.942;4.028;2024-01-15T00:46:55;4.00;99.90
21037;DHT22;10677;50.942;4.028;2024-01-15T00:49:21;3.90;99.90
21037;DHT22;10677;50.942;4.028;2024-01-15T00:51:47;4.00;99.90
21037;DHT22;10677;50.942;4.028;2024-01-15T00:54:13;3.80;99.90
21037;DHT22;10677;50.942;4.028;2024-01-15T00:56:38;3.70;99.90
21037;DHT22;10677;50.942;4.028;2024-01-15T00:59:04;3.60;99.90
21037;DHT22;10677;50.942;4.028;2024-01-15T01:01:30;3.60;99.90
21037;DHT22;10677;50.942;4.028;2024-01-15T01:03:55;3.70;99.90
21037;DHT22;10677;50.942;4.028;2024-01-15T01:06:21;3.80;99.90
21037;DHT22;10677;50.942;4.028;2024-01-15T01:08:47;4.00;99.90
21037;DHT22;10677;50.942;4.028;2024-01-15T01:11:13;4.00;99.90
21037;DHT22;10677;50.942;4.028;2024-01-15T01:17:01;3.80;99.90
21037;DHT22;10677;50.942;4.028;2024-01-15T01:19:27;3.90;99.90
21037;DHT22;10677;50.942;4.028;2024-01-15T01:21:53;4.00;99.90
21037;DHT22;10677;50.942;4.028;2024-01-15T01:24:19;4.10;99.90
21037;DHT22;10677;50.942;4.028;2024-01-15T01:26:44;4.20;99.90
21037;DHT22;10677;50.942;4.028;2024-01-15T01:29:12;4.30;99.90
21037;DHT22;10677;50.942;4.028;2024-01-15T01:31:45;4.30;99.90
21037;DHT22;10677;50.942;4.028;2024-01-15T01:34:13;4.30;99.90
21037;DHT22;10677;50.942;4.028;2024-01-15T01:36:39;4.30;99.90
21037;DHT22;10677;50.942;4.028;2024-01-15T01:39:05;4.10;99.90
21037;DHT22;10677;50.942;4.028;2024-01-15T01:41:30;4.10;99.90
21037;DHT22;10677;50.942;4.028;2024-01-15T01:43:56;4.20;99.90
21037;DHT22;10677;50.942;4.028;2024-01-15T01:46:24;4.30;99.90
21037;DHT22;10677;50.942;4.028;2024-01-15T01:48:52;4.30;99.90
21037;DHT22;10677;50.942;4.028;2024-01-15T01:51:18;4.30;99.90
21037;DHT22;10677;50.942;4.028;2024-01-15T01:53:45;4.40;99.90
21037;DHT22;10677;50.942;4.028;2024-01-15T01:56:11;4.30;99.90
21037;DHT22;10677;50.942;4.028;2024-01-15T01:58:37;4.30;99.90
21037;DHT22;10677;50.942;4.028;2024-01-15T02:01:03;4.30;99.90
21037;DHT22;10677;50.942;4.028;2024-01-15T02:03:30;4.20;99.90
21037;DHT22;10677;50.942;4.028;2024-01-15T02:05:56;4.20;99.90
21037;DHT22;10677;50.942;4.028;2024-01-15T02:08:23;4.10;99.90
21037;DHT22;10677;50.942;4.028;2024-01-15T02:10:48;4.20;99.90
21037;DHT22;10677;50.942;4.028;2024-01-15T02:13:14;4.20;99.90
21037;DHT22;10677;50.942;4.028;2024-01-15T02:15:40;4.20;99.90
21037;DHT22;10677;50.942;4.028;2024-01-15T02:18:07;4.20;99.90
21037;DHT22;10677;50.942;4.028;2024-01-15T02:20:33;4.20;99.90
21037;DHT22;10677;50.942;4.028;2024-01-15T02:23:20;4.10;99.90
21037;DHT22;10677;50.942;4.028;2024-01-15T02:25:46;4.00;99.90
21037;DHT22;10677;50.942;4.028;2024-01-15T02:28:14;4.10;99.90
21037;DHT22;10677;50.942;4.028;2024-01-15T02:30:41;4.10;99.90
21037;DHT22;10677;50.942;4.028;2024-01-15T02:33:08;4.30;99.90
21037;DHT22;10677;50.942;4.028;2024-01-15T02:35:34;4.10;99.90
21037;DHT22;10677;50.942;4.028;2024-01-15T02:38:02;4.10;99.90
21037;DHT22;10677;50.942;4.028;2024-01-15T02:40:29;4.20;99.90
21037;DHT22;10677;50.942;4.028;2024-01-15T02:42:54;4.30;99.90
21037;DHT22;10677;50.942;4.028;2024-01-15T02:45:22;4.40;99.90
21037;DHT22;10677;50.942;4.028;2024-01-15T02:47:48;4.30;99.90
21037;DHT22;10677;50.942;4.028;2024-01-15T02:50:51;4.40;99.90
21037;DHT22;10677;50.942;4.028;2024-01-15T02:53:16;4.40;99.90
21037;DHT22;10677;50.942;4.028;2024-01-15T02:55:42;4.40;99.90
21037;DHT22;10677;50.942;4.028;2024-01-15T02:58:08;4.50;99.90
21037;DHT22;10677;50.942;4.028;2024-01-15T03:00:34;4.50;99.90
21037;DHT22;10677;50.942;4.028;2024-01-15T03:03:00;4.50;99.90
21037;DHT22;10677;50.942;4.028;2024-01-15T03:05:26;4.60;99.90
21037;DHT22;10677;50.942;4.028;2024-01-15T03:07:52;4.70;99.90
21037;DHT22;10677;50.942;4.028;2024-01-15T03:10:17;4.60;99.90
21037;DHT22;10677;50.942;4.028;2024-01-15T03:12:43;4.60;99.90
21037;DHT22;10677;50.942;4.028;2024-01-15T03:15:09;4.60;99.90
21037;DHT22;10677;50.942;4.028;2024-01-15T03:17:34;4.60;99.90
21037;DHT22;10677;50.942;4.028;2024-01-15T03:20:01;4.60;99.90
21037;DHT22;10677;50.942;4.028;2024-01-15T03:22:26;4.60;99.90
21037;DHT22;10677;50.942;4.028;2024-01-15T03:24:53;4.60;99.90
21037;DHT22;10677;50.942;4.028;2024-01-15T03:27:18;4.60;99.90
21037;DHT22;10677;50.942;4.028;2024-01-15T03:29:44;4.60;99.90
21037;DHT22;10677;50.942;4.028;2024-01-15T03:32:10;4.80;99.90
21037;DHT22;10677;50.942;4.028;2024-01-15T03:34:35;4.70;99.90
21037;DHT22;10677;50.942;4.028;2024-01-15T03:37:01;4.70;99.90
21037;DHT22;10677;50.942;4.028;2024-01-15T03:39:26;4.70;99.90
21037;DHT22;10677;50.942;4.028;2024-01-15T03:41:52;4.70;99.90
21037;DHT22;10677;50.942;4.028;2024-01-15T03:44:18;4.70;99.90
21037;DHT22;10677;50.942;4.028;2024-01-15T03:46:43;4.70;99.90
21037;DHT22;10677;50.942;4.028;2024-01-15T03:49:09;4.70;99.90
21037;DHT22;10677;50.942;4.028;2024-01-15T03:51:35;4.60;99.90
21037;DHT22;10677;50.942;4.028;2024-01-15T03:54:00;4.60;99.90
21037;DHT22;10677;50.942;4.028;2024-01-15T03:56:26;4.60;99.90
21037;DHT22;10677;50.942;4.028;2024-01-15T03:58:52;4.60;99.90
21037;DHT22;10677;50.942;4.028;2024-01-15T04:01:17;4.50;99.90
21037;DHT22;10677;50.942;4.028;2024-01-15T04:03:43;4.60;99.90
21037;DHT22;10677;50.942;4.028;2024-01-15T04:06:08;4.40;99.90
21037;DHT22;10677;50.942;4.028;2024-01-15T04:08:34;4.40;99.90
21037;DHT22;10677;50.942;4.028;2024-01-15T04:11:00;4.40;99.90
21037;DHT22;10677;50.942;4.028;2024-01-15T04:13:27;4.30;99.90
21037;DHT22;10677;50.942;4.028;2024-01-15T04:15:53;4.30;99.90
21037;DHT22;10677;50.942;4.028;2024-01-15T04:18:18;4.30;99.90
21037;DHT22;10677;50.942;4.028;2024-01-15T04:20:44;4.30;99.90
21037;DHT22;10677;50.942;4.028;2024-01-15T04:23:13;4.30;99.90
21037;DHT22;10677;50.942;4.028;2024-01-15T04:25:39;4.20;99.90
21037;DHT22;10677;50.942;4.028;2024-01-15T04:28:08;3.90;99.90
21037;DHT22;10677;50.942;4.028;2024-01-15T04:30:35;3.90;99.90
21037;DHT22;10677;50.942;4.028;2024-01-15T04:33:01;3.60;99.90
21037;DHT22;10677;50.942;4.028;2024-01-15T04:35:27;3.80;99.90
21037;DHT22;10677;50.942;4.028;2024-01-15T04:37:52;3.70;99.90
21037;DHT22;10677;50.942;4.028;2024-01-15T04:40:18;3.70;99.90
21037;DHT22;10677;50.942;4.028;2024-01-15T04:42:44;3.70;99.90
21037;DHT22;10677;50.942;4.028;2024-01-15T04:45:11;3.70;99.90
21037;DHT22;10677;50.942;4.028;2024-01-15T04:47:37;3.60;99.90
21037;DHT22;10677;50.942;4.028;2024-01-15T04:50:04;3.50;99.90
21037;DHT22;10677;50.942;4.028;2024-01-15T04:52:30;3.50;99.90
21037;DHT22;10677;50.942;4.028;2024-01-15T04:54:56;3.50;99.90
21037;DHT22;10677;50.942;4.028;2024-01-15T04:57:22;3.70;99.90
21037;DHT22;10677;50.942;4.028;2024-01-15T04:59:48;3.80;99.90
21037;DHT22;10677;50.942;4.028;2024-01-15T05:02:14;3.80;99.90
21037;DHT22;10677;50.942;4.028;2024-01-15T05:04:39;3.80;99.90
21037;DHT22;10677;50.942;4.028;2024-01-15T05:07:05;3.80;99.90
21037;DHT22;10677;50.942;4.028;2024-01-15T05:09:30;3.70;99.90
21037;DHT22;10677;50.942;4.028;2024-01-15T05:11:59;3.60;99.90
21037;DHT22;10677;50.942;4.028;2024-01-15T05:14:24;3.70;99.90
21037;DHT22;10677;50.942;4.028;2024-01-15T05:16:50;3.90;99.90
21037;DHT22;10677;50.942;4.028;2024-01-15T05:19:17;3.80;99.90
21037;DHT22;10677;50.942;4.028;2024-01-15T05:21:43;3.80;99.90
21037;DHT22;10677;50.942;4.028;2024-01-15T05:24:09;3.80;99.90
21037;DHT22;10677;50.942;4.028;2024-01-15T05:26:35;3.80;99.90
21037;DHT22;10677;50.942;4.028;2024-01-15T05:29:00;3.60;99.90
21037;DHT22;10677;50.942;4.028;2024-01-15T05:31:26;3.60;99.90
21037;DHT22;10677;50.942;4.028;2024-01-15T05:33:51;3.60;99.90
21037;DHT22;10677;50.942;4.028;2024-01-15T05:36:17;3.40;99.90
21037;DHT22;10677;50.942;4.028;2024-01-15T05:38:43;3.40;99.90
21037;DHT22;10677;50.942;4.028;2024-01-15T05:41:08;3.40;99.90
21037;DHT22;10677;50.942;4.028;2024-01-15T05:43:34;3.50;99.90
21037;DHT22;10677;50.942;4.028;2024-01-15T05:46:00;3.60;99.90
21037;DHT22;10677;50.942;4.028;2024-01-15T05:48:25;3.40;99.90
21037;DHT22;10677;50.942;4.028;2024-01-15T05:50:51;3.40;99.90
21037;DHT22;10677;50.942;4.028;2024-01-15T05:53:17;3.40;99.90
21037;DHT22;10677;50.942;4.028;2024-01-15T05:55:42;3.30;99.90
21037;DHT22;10677;50.942;4.028;2024-01-15T05:58:08;3.30;99.90
21037;DHT22;10677;50.942;4.028;2024-01-15T06:00:34;3.30;99.90
21037;DHT22;10677;50.942;4.028;2024-01-15T06:03:00;3.20;99.90
21037;DHT22;10677;50.942;4.028;2024-01-15T06:05:26;3.30;99.90
21037;DHT22;10677;50.942;4.028;2024-01-15T06:07:52;3.30;99.90
21037;DHT22;10677;50.942;4.028;2024-01-15T06:10:17;3.30;99.90
21037;DHT22;10677;50.942;4.028;2024-01-15T06:12:44;3.30;99.90
21037;DHT22;10677;50.942;4.028;2024-01-15T06:15:10;3.30;99.90
21037;DHT22;10677;50.942;4.028;2024-01-15T06:17:35;3.20;99.90
21037;DHT22;10677;50.942;4.028;2024-01-15T06:20:01;3.10;99.90
21037;DHT22;10677;50.942;4.028;2024-01-15T06:22:27;3.20;99.90
21037;DHT22;10677;50.942;4.028;2024-01-15T06:24:53;3.20;99.90
21037;DHT22;10677;50.942;4.028;2024-01-15T06:27:18;3.20;99.90
21037;DHT22;10677;50.942;4.028;2024-01-15T06:29:45;3.30;99.90
21037;DHT22;10677;50.942;4.028;2024-01-15T06:32:12;3.30;99.90
21037;DHT22;10677;50.942;4.028;2024-01-15T06:34:38;3.40;99.90
21037;DHT22;10677;50.942;4.028;2024-01-15T06:37:04;3.30;99.90
21037;DHT22;10677;50.942;4.028;2024-01-15T06:39:30;3.20;99.90
21037;DHT22;10677;50.942;4.028;2024-01-15T06:41:56;3.20;99.90
21037;DHT22;10677;50.942;4.028;2024-01-15T06:44:21;3.10;99.90
21037;DHT22;10677;50.942;4.028;2024-01-15T06:46:47;3.10;99.90
21037;DHT22;10677;50.942;4.028;2024-01-15T06:49:13;3.30;99.90
21037;DHT22;10677;50.942;4.028;2024-01-15T06:51:39;3.20;99.90
21037;DHT22;10677;50.942;4.028;2024-01-15T06:54:05;3.00;99.90
21037;DHT22;10677;50.942;4.028;2024-01-15T06:56:34;3.00;99.90
21037;DHT22;10677;50.942;4.028;2024-01-15T06:59:01;2.80;99.90
21037;DHT22;10677;50.942;4.028;2024-01-15T07:01:27;2.70;99.90
21037;DHT22;10677;50.942;4.028;2024-01-15T07:03:52;2.70;99.90
21037;DHT22;10677;50.942;4.028;2024-01-15T07:06:18;2.80;99.90
21037;DHT22;10677;50.942;4.028;2024-01-15T07:08:44;2.90;99.90
21037;DHT22;10677;50.942;4.028;2024-01-15T07:11:11;3.10;99.90
21037;DHT22;10677;50.942;4.028;2024-01-15T07:13:37;3.10;99.90
21037;DHT22;10677;50.942;4.028;2024-01-15T07:16:11;3.10;99.90
21037;DHT22;10677;50.942;4.028;2024-01-15T07:18:39;3.20;99.90
21037;DHT22;10677;50.942;4.028;2024-01-15T07:21:04;3.20;99.90
21037;DHT22;10677;50.942;4.028;2024-01-15T07:23:31;3.20;99.90
21037;DHT22;10677;50.942;4.028;2024-01-15T07:26:31;3.10;99.90
21037;DHT22;10677;50.942;4.028;2024-01-15T07:28:57;3.20;99.90
21037;DHT22;10677;50.942;4.028;2024-01-15T07:31:22;3.10;99.90
21037;DHT22;10677;50.942;4.028;2024-01-15T07:33:48;2.90;99.90
21037;DHT22;10677;50.942;4.028;2024-01-15T07:36:14;3.00;99.90
21037;DHT22;10677;50.942;4.028;2024-01-15T07:38:41;2.90;99.90
21037;DHT22;10677;50.942;4.028;2024-01-15T07:41:07;3.00;99.90
21037;DHT22;10677;50.942;4.028;2024-01-15T07:43:35;2.90;99.90
21037;DHT22;10677;50.942;4.028;2024-01-15T07:46:00;2.90;99.90
21037;DHT22;10677;50.942;4.028;2024-01-15T07:48:31;2.70;99.90
21037;DHT22;10677;50.942;4.028;2024-01-15T07:50:56;2.80;99.90
21037;DHT22;10677;50.942;4.028;2024-01-15T07:53:23;2.70;99.90
21037;DHT22;10677;50.942;4.028;2024-01-15T07:55:50;2.80;99.90
21037;DHT22;10677;50.942;4.028;2024-01-15T07:58:54;2.70;99.90
21037;DHT22;10677;50.942;4.028;2024-01-15T08:01:19;2.60;99.90
21037;DHT22;10677;50.942;4.028;2024-01-15T08:03:45;2.40;99.90
21037;DHT22;10677;50.942;4.028;2024-01-15T08:06:11;2.50;99.90
21037;DHT22;10677;50.942;4.028;2024-01-15T08:08:37;2.30;99.90
21037;DHT22;10677;50.942;4.028;2024-01-15T08:11:03;2.40;99.90
21037;DHT22;10677;50.942;4.028;2024-01-15T08:13:30;2.40;99.90
21037;DHT22;10677;50.942;4.028;2024-01-15T08:15:58;2.50;99.90
21037;DHT22;10677;50.942;4.028;2024-01-15T08:18:30;2.60;99.90
21037;DHT22;10677;50.942;4.028;2024-01-15T08:20:59;2.60;99.90
21037;DHT22;10677;50.942;4.028;2024-01-15T08:23:25;2.50;99.90
21037;DHT22;10677;50.942;4.028;2024-01-15T08:25:54;2.40;99.90
21037;DHT22;10677;50.942;4.028;2024-01-15T08:28:20;2.40;99.90
21037;DHT22;10677;50.942;4.028;2024-01-15T08:37:33;2.30;99.90
21037;DHT22;10677;50.942;4.028;2024-01-15T08:40:02;2.40;99.90
21037;DHT22;10677;50.942;4.028;2024-01-15T08:42:29;2.40;99.90
21037;DHT22;10677;50.942;4.028;2024-01-15T08:44:54;2.40;99.90
21037;DHT22;10677;50.942;4.028;2024-01-15T08:47:23;2.40;99.90
21037;DHT22;10677;50.942;4.028;2024-01-15T08:49:51;2.50;99.90
21037;DHT22;10677;50.942;4.028;2024-01-15T08:52:19;2.40;99.90
21037;DHT22;10677;50.942;4.028;2024-01-15T08:54:48;2.70;99.90
21037;DHT22;10677;50.942;4.028;2024-01-15T08:57:23;2.70;99.90
21037;DHT22;10677;50.942;4.028;2024-01-15T08:59:54;2.80;99.90
21037;DHT22;10677;50.942;4.028;2024-01-15T09:02:31;2.80;99.90
21037;DHT22;10677;50.942;4.028;2024-01-15T09:05:09;2.70;99.90
21037;DHT22;10677;50.942;4.028;2024-01-15T09:07:35;2.80;99.90
21037;DHT22;10677;50.942;4.028;2024-01-15T09:10:01;2.90;99.90
21037;DHT22;10677;50.942;4.028;2024-01-15T09:12:27;3.00;99.90
21037;DHT22;10677;50.942;4.028;2024-01-15T09:14:53;3.20;99.90
21037;DHT22;10677;50.942;4.028;2024-01-15T09:17:20;3.30;99.90
21037;DHT22;10677;50.942;4.028;2024-01-15T09:19:47;3.30;99.90
21037;DHT22;10677;50.942;4.028;2024-01-15T09:22:13;3.40;99.90
21037;DHT22;10677;50.942;4.028;2024-01-15T09:24:43;3.20;99.90
21037;DHT22;10677;50.942;4.028;2024-01-15T09:27:09;3.30;99.90
21037;DHT22;10677;50.942;4.028;2024-01-15T09:29:35;3.20;99.90
21037;DHT22;10677;50.942;4.028;2024-01-15T09:32:05;3.20;99.90
21037;DHT22;10677;50.942;4.028;2024-01-15T09:34:33;3.30;99.90
21037;DHT22;10677;50.942;4.028;2024-01-15T09:36:59;3.30;99.90
21037;DHT22;10677;50.942;4.028;2024-01-15T09:39:26;3.30;99.90
21037;DHT22;10677;50.942;4.028;2024-01-15T09:41:56;3.40;99.90
21037;DHT22;10677;50.942;4.028;2024-01-15T09:44:26;3.20;99.90
21037;DHT22;10677;50.942;4.028;2024-01-15T09:46:53;3.20;99.90
21037;DHT22;10677;50.942;4.028;2024-01-15T09:49:20;3.20;99.90
21037;DHT22;10677;50.942;4.028;2024-01-15T09:51:47;3.10;99.90
21037;DHT22;10677;50.942;4.028;2024-01-15T09:54:15;3.20;99.90
21037;DHT22;10677;50.942;4.028;2024-01-15T09:56:45;3.20;99.90
21037;DHT22;10677;50.942;4.028;2024-01-15T09:59:18;3.40;99.90
21037;DHT22;10677;50.942;4.028;2024-01-15T10:01:44;3.50;99.90
21037;DHT22;10677;50.942;4.028;2024-01-15T10:04:16;3.50;99.90
21037;DHT22;10677;50.942;4.028;2024-01-15T10:06:46;3.70;99.90
21037;DHT22;10677;50.942;4.028;2024-01-15T10:09:18;3.60;99.90
21037;DHT22;10677;50.942;4.028;2024-01-15T10:11:44;3.60;99.90
21037;DHT22;10677;50.942;4.028;2024-01-15T10:14:11;3.80;99.90
21037;DHT22;10677;50.942;4.028;2024-01-15T10:16:40;3.90;99.90
21037;DHT22;10677;50.942;4.028;2024-01-15T10:19:10;3.70;99.90
21037;DHT22;10677;50.942;4.028;2024-01-15T10:21:37;3.70;99.90
21037;DHT22;10677;50.942;4.028;2024-01-15T10:24:04;3.70;99.90
21037;DHT22;10677;50.942;4.028;2024-01-15T10:26:31;3.70;99.90
21037;DHT22;10677;50.942;4.028;2024-01-15T10:28:58;3.80;99.90
21037;DHT22;10677;50.942;4.028;2024-01-15T10:31:24;3.80;99.90
21037;DHT22;10677;50.942;4.028;2024-01-15T10:33:51;3.70;99.90
21037;DHT22;10677;50.942;4.028;2024-01-15T10:36:17;3.80;99.90
21037;DHT22;10677;50.942;4.028;2024-01-15T10:38:44;3.80;99.90
21037;DHT22;10677;50.942;4.028;2024-01-15T10:41:11;3.90;99.90
21037;DHT22;10677;50.942;4.028;2024-01-15T10:43:37;4.00;99.90
21037;DHT22;10677;50.942;4.028;2024-01-15T10:46:03;4.10;99.90
21037;DHT22;10677;50.942;4.028;2024-01-15T10:48:30;4.10;99.90
21037;DHT22;10677;50.942;4.028;2024-01-15T10:50:58;4.10;99.90
21037;DHT22;10677;50.942;4.028;2024-01-15T10:53:25;4.10;99.90
21037;DHT22;10677;50.942;4.028;2024-01-15T10:55:52;4.10;99.90
21037;DHT22;10677;50.942;4.028;2024-01-15T10:58:18;4.10;99.90
21037;DHT22;10677;50.942;4.028;2024-01-15T11:00:45;4.10;99.90
21037;DHT22;10677;50.942;4.028;2024-01-15T11:03:11;4.10;99.90
21037;DHT22;10677;50.942;4.028;2024-01-15T11:05:43;4.00;99.90
21037;DHT22;10677;50.942;4.028;2024-01-15T11:08:10;4.10;99.90
21037;DHT22;10677;50.942;4.028;2024-01-15T11:10:44;4.10;99.90
21037;DHT22;10677;50.942;4.028;2024-01-15T11:13:19;4.10;99.90
21037;DHT22;10677;50.942;4.028;2024-01-15T11:18:23;4.20;99.90
21037;DHT22;10677;50.942;4.028;2024-01-15T11:23:57;3.90;99.90
21037;DHT22;10677;50.942;4.028;2024-01-15T11:26:36;3.90;99.90
21037;DHT22;10677;50.942;4.028;2024-01-15T11:29:06;3.90;99.90
21037;DHT22;10677;50.942;4.028;2024-01-15T11:34:06;4.10;99.90
21037;DHT22;10677;50.942;4.028;2024-01-15T11:42:04;4.10;99.90
21037;DHT22;10677;50.942;4.028;2024-01-15T11:44:30;4.20;99.90
21037;DHT22;10677;50.942;4.028;2024-01-15T11:47:01;4.20;99.90
21037;DHT22;10677;50.942;4.028;2024-01-15T11:52:19;4.30;99.90
21037;DHT22;10677;50.942;4.028;2024-01-15T11:57:45;4.30;99.90
21037;DHT22;10677;50.942;4.028;2024-01-15T12:00:12;4.30;99.90
21037;DHT22;10677;50.942;4.028;2024-01-15T12:02:41;4.30;99.90
21037;DHT22;10677;50.942;4.028;2024-01-15T12:05:13;4.30;99.90
21037;DHT22;10677;50.942;4.028;2024-01-15T12:07:40;4.40;99.90
21037;DHT22;10677;50.942;4.028;2024-01-15T12:12:57;4.30;99.90
21037;DHT22;10677;50.942;4.028;2024-01-15T12:15:24;4.20;99.90
21037;DHT22;10677;50.942;4.028;2024-01-15T12:17:50;4.10;99.90
21037;DHT22;10677;50.942;4.028;2024-01-15T12:20:17;4.20;99.90
21037;DHT22;10677;50.942;4.028;2024-01-15T12:22:43;4.20;99.90
21037;DHT22;10677;50.942;4.028;2024-01-15T12:25:10;4.40;99.90
21037;DHT22;10677;50.942;4.028;2024-01-15T12:27:36;4.60;99.90
21037;DHT22;10677;50.942;4.028;2024-01-15T12:30:02;4.80;99.90
21037;DHT22;10677;50.942;4.028;2024-01-15T12:32:29;4.90;99.90
21037;DHT22;10677;50.942;4.028;2024-01-15T12:34:55;5.00;99.90
21037;DHT22;10677;50.942;4.028;2024-01-15T12:37:21;5.10;99.90
21037;DHT22;10677;50.942;4.028;2024-01-15T12:39:47;4.90;99.90
21037;DHT22;10677;50.942;4.028;2024-01-15T12:42:17;4.80;99.90
21037;DHT22;10677;50.942;4.028;2024-01-15T12:44:46;4.80;99.90
21037;DHT22;10677;50.942;4.028;2024-01-15T12:47:12;4.70;99.90
21037;DHT22;10677;50.942;4.028;2024-01-15T12:49:38;4.40;99.90
21037;DHT22;10677;50.942;4.028;2024-01-15T12:52:08;4.40;99.90
21037;DHT22;10677;50.942;4.028;2024-01-15T12:54:35;4.50;99.90
21037;DHT22;10677;50.942;4.028;2024-01-15T12:57:00;4.80;99.90
21037;DHT22;10677;50.942;4.028;2024-01-15T12:59:26;4.80;99.90
21037;DHT22;10677;50.942;4.028;2024-01-15T13:01:52;4.70;99.90
21037;DHT22;10677;50.942;4.028;2024-01-15T13:04:24;4.60;99.90
21037;DHT22;10677;50.942;4.028;2024-01-15T13:06:50;4.70;99.90
21037;DHT22;10677;50.942;4.028;2024-01-15T13:09:17;4.70;99.90
21037;DHT22;10677;50.942;4.028;2024-01-15T13:11:45;4.60;99.90
21037;DHT22;10677;50.942;4.028;2024-01-15T13:14:11;4.60;99.90
21037;DHT22;10677;50.942;4.028;2024-01-15T13:16:37;4.50;99.90
21037;DHT22;10677;50.942;4.028;2024-01-15T13:19:02;4.30;99.90
21037;DHT22;10677;50.942;4.028;2024-01-15T13:21:30;4.30;99.90
21037;DHT22;10677;50.942;4.028;2024-01-15T13:23:55;4.50;99.90
21037;DHT22;10677;50.942;4.028;2024-01-15T13:26:22;4.70;99.90
21037;DHT22;10677;50.942;4.028;2024-01-15T13:28:47;4.70;99.90
21037;DHT22;10677;50.942;4.028;2024-01-15T13:31:14;4.80;99.90
21037;DHT22;10677;50.942;4.028;2024-01-15T13:33:40;4.90;99.90
21037;DHT22;10677;50.942;4.028;2024-01-15T13:36:06;4.80;99.90
21037;DHT22;10677;50.942;4.028;2024-01-15T13:38:38;4.60;99.90
21037;DHT22;10677;50.942;4.028;2024-01-15T13:41:05;4.00;99.90
21037;DHT22;10677;50.942;4.028;2024-01-15T13:43:35;3.50;99.90
21037;DHT22;10677;50.942;4.028;2024-01-15T13:46:04;3.20;99.90
21037;DHT22;10677;50.942;4.028;2024-01-15T13:48:30;3.10;99.90
21037;DHT22;10677;50.942;4.028;2024-01-15T13:50:58;3.00;99.90
21037;DHT22;10677;50.942;4.028;2024-01-15T13:56:01;3.00;99.90
21037;DHT22;10677;50.942;4.028;2024-01-15T13:58:27;3.10;99.90
21037;DHT22;10677;50.942;4.028;2024-01-15T14:00:52;3.00;99.90
21037;DHT22;10677;50.942;4.028;2024-01-15T14:03:19;2.90;99.90
21037;DHT22;10677;50.942;4.028;2024-01-15T14:05:45;3.10;99.90
21037;DHT22;10677;50.942;4.028;2024-01-15T14:08:10;3.30;99.90
21037;DHT22;10677;50.942;4.028;2024-01-15T14:10:36;3.50;99.90
21037;DHT22;10677;50.942;4.028;2024-01-15T14:13:03;3.50;99.90
21037;DHT22;10677;50.942;4.028;2024-01-15T14:15:29;3.60;99.90
21037;DHT22;10677;50.942;4.028;2024-01-15T14:17:55;3.80;99.90
21037;DHT22;10677;50.942;4.028;2024-01-15T14:20:21;3.80;99.90
21037;DHT22;10677;50.942;4.028;2024-01-15T14:22:47;3.90;99.90
21037;DHT22;10677;50.942;4.028;2024-01-15T14:25:13;4.00;99.90
21037;DHT22;10677;50.942;4.028;2024-01-15T14:27:39;3.60;99.90
21037;DHT22;10677;50.942;4.028;2024-01-15T14:30:06;2.80;99.90
21037;DHT22;10677;50.942;4.028;2024-01-15T14:32:34;2.40;99.90
21037;DHT22;10677;50.942;4.028;2024-01-15T14:34:59;2.30;99.90
21037;DHT22;10677;50.942;4.028;2024-01-15T14:37:25;2.00;99.90
21037;DHT22;10677;50.942;4.028;2024-01-15T14:39:51;2.10;99.90
21037;DHT22;10677;50.942;4.028;2024-01-15T14:42:18;2.10;99.90
21037;DHT22;10677;50.942;4.028;2024-01-15T14:44:44;1.90;99.90
21037;DHT22;10677;50.942;4.028;2024-01-15T14:47:09;1.80;99.90
21037;DHT22;10677;50.942;4.028;2024-01-15T14:49:35;1.70;99.90
21037;DHT22;10677;50.942;4.028;2024-01-15T14:52:01;1.70;99.90
21037;DHT22;10677;50.942;4.028;2024-01-15T14:54:27;1.70;99.90
21037;DHT22;10677;50.942;4.028;2024-01-15T14:56:53;1.80;99.90
21037;DHT22;10677;50.942;4.028;2024-01-15T14:59:19;2.00;99.90
21037;DHT22;10677;50.942;4.028;2024-01-15T15:01:45;1.90;99.90
21037;DHT22;10677;50.942;4.028;2024-01-15T15:04:11;1.80;99.90
21037;DHT22;10677;50.942;4.028;2024-01-15T15:06:37;1.90;99.90
21037;DHT22;10677;50.942;4.028;2024-01-15T15:09:03;2.00;99.90
21037;DHT22;10677;50.942;4.028;2024-01-15T15:11:34;1.90;99.90
21037;DHT22;10677;50.942;4.028;2024-01-15T15:14:01;2.00;99.90
21037;DHT22;10677;50.942;4.028;2024-01-15T15:16:26;2.20;99.90
21037;DHT22;10677;50.942;4.028;2024-01-15T15:18:53;2.30;99.90
21037;DHT22;10677;50.942;4.028;2024-01-15T15:21:20;2.30;99.90
21037;DHT22;10677;50.942;4.028;2024-01-15T15:23:46;2.20;99.90
21037;DHT22;10677;50.942;4.028;2024-01-15T15:26:13;2.10;99.90
21037;DHT22;10677;50.942;4.028;2024-01-15T15:28:39;2.10;99.90
21037;DHT22;10677;50.942;4.028;2024-01-15T15:31:06;2.20;99.90
21037;DHT22;10677;50.942;4.028;2024-01-15T15:33:37;2.30;99.90
21037;DHT22;10677;50.942;4.028;2024-01-15T15:36:03;2.20;99.90
21037;DHT22;10677;50.942;4.028;2024-01-15T15:38:33;2.10;99.90
21037;DHT22;10677;50.942;4.028;2024-01-15T15:41:00;2.10;99.90
21037;DHT22;10677;50.942;4.028;2024-01-15T15:43:29;2.20;99.90
21037;DHT22;10677;50.942;4.028;2024-01-15T15:45:56;2.20;99.90
21037;DHT22;10677;50.942;4.028;2024-01-15T15:48:23;2.20;99.90
21037;DHT22;10677;50.942;4.028;2024-01-15T15:50:50;2.20;99.90
21037;DHT22;10677;50.942;4.028;2024-01-15T15:53:18;2.10;99.90
21037;DHT22;10677;50.942;4.028;2024-01-15T15:55:44;2.10;99.90
21037;DHT22;10677;50.942;4.028;2024-01-15T15:58:10;2.10;99.90
21037;DHT22;10677;50.942;4.028;2024-01-15T16:00:35;2.10;99.90
21037;DHT22;10677;50.942;4.028;2024-01-15T16:03:01;2.00;99.90
21037;DHT22;10677;50.942;4.028;2024-01-15T16:05:27;2.00;99.90
21037;DHT22;10677;50.942;4.028;2024-01-15T16:07:52;1.90;99.90
21037;DHT22;10677;50.942;4.028;2024-01-15T16:10:18;1.90;99.90
21037;DHT22;10677;50.942;4.028;2024-01-15T16:12:45;2.00;99.90
21037;DHT22;10677;50.942;4.028;2024-01-15T16:17:44;2.20;99.90
21037;DHT22;10677;50.942;4.028;2024-01-15T16:20:10;2.20;99.90